createdAt,value
2023-12-23T00:01:17.893Z,54.47
2023-12-23T00:02:51.871Z,54.66
2023-12-23T00:04:25.280Z,54.70
2023-12-23T00:05:57.819Z,54.95
2023-12-23T00:07:31.115Z,54.94
2023-12-23T00:09:03.360Z,55.04
2023-12-23T00:10:36.665Z,55.24
2023-12-23T00:12:10.224Z,55.14
2023-12-23T00:13:43.603Z,55.32
2023-12-23T00:15:15.918Z,55.61
2023-12-23T00:16:49.403Z,55.42
2023-12-23T00:18:23.479Z,55.56
2023-12-23T00:19:57.904Z,55.46
2023-12-23T00:21:31.347Z,55.63
2023-12-23T00:23:04.769Z,55.53
2023-12-23T00:24:37.906Z,55.44
2023-12-23T00:26:11.229Z,55.40
2023-12-23T00:27:48.506Z,55.46
2023-12-23T00:29:21.869Z,55.48
2023-12-23T00:30:54.594Z,55.81
2023-12-23T00:32:27.856Z,55.78
2023-12-23T00:34:01.641Z,55.91
2023-12-23T00:35:34.917Z,56.06
2023-12-23T00:37:07.773Z,56.23
2023-12-23T00:38:40.981Z,56.40
2023-12-23T00:40:13.695Z,56.33
2023-12-23T00:41:46.948Z,56.39
2023-12-23T00:43:19.469Z,56.33
2023-12-23T00:44:52.797Z,56.42
2023-12-23T00:46:25.317Z,56.39
2023-12-23T00:47:58.750Z,56.38
2023-12-23T00:49:32.897Z,56.31
2023-12-23T00:51:08.730Z,56.47
2023-12-23T00:52:40.982Z,56.51
2023-12-23T00:54:14.335Z,56.52
2023-12-23T00:55:46.759Z,56.26
2023-12-23T00:57:20.035Z,56.90
2023-12-23T00:58:52.290Z,56.74
2023-12-23T01:00:25.673Z,56.65
2023-12-23T01:01:58.187Z,56.63
2023-12-23T01:03:31.483Z,56.73
2023-12-23T01:05:06.039Z,56.53
2023-12-23T01:06:39.411Z,56.54
2023-12-23T01:08:11.965Z,56.68
2023-12-23T01:09:45.212Z,56.83
2023-12-23T01:11:17.725Z,56.96
2023-12-23T01:12:50.914Z,57.00
2023-12-23T01:14:24.617Z,57.21
2023-12-23T01:15:56.861Z,57.17
2023-12-23T01:17:30.149Z,57.21
2023-12-23T01:19:02.434Z,57.29
2023-12-23T01:20:39.602Z,57.26
2023-12-23T01:22:11.869Z,57.16
2023-12-23T01:23:45.114Z,57.31
2023-12-23T01:25:17.393Z,57.08
2023-12-23T01:26:51.227Z,57.10
2023-12-23T01:28:23.450Z,57.18
2023-12-23T01:29:57.760Z,57.31
2023-12-23T01:31:31.053Z,57.40
2023-12-23T01:33:05.048Z,57.45
2023-12-23T01:34:39.616Z,57.50
2023-12-23T01:36:13.249Z,57.53
2023-12-23T01:37:46.901Z,57.53
2023-12-23T01:39:19.955Z,57.61
2023-12-23T01:40:53.290Z,57.58
2023-12-23T01:42:25.630Z,57.62
2023-12-23T01:43:58.975Z,57.60
2023-12-23T01:45:32.385Z,57.58
2023-12-23T01:47:08.272Z,57.61
2023-12-23T01:48:43.935Z,57.70
2023-12-23T01:50:20.428Z,57.59
2023-12-23T01:51:56.256Z,57.31
2023-12-23T01:53:30.046Z,57.62
2023-12-23T01:55:02.637Z,58.00
2023-12-23T01:56:36.658Z,57.71
2023-12-23T01:58:09.143Z,57.83
2023-12-23T01:59:42.471Z,57.85
2023-12-23T02:01:14.883Z,58.14
2023-12-23T02:02:49.426Z,57.80
2023-12-23T02:04:22.581Z,58.07
2023-12-23T02:05:56.239Z,58.44
2023-12-23T02:07:29.849Z,58.25
2023-12-23T02:09:03.955Z,58.20
2023-12-23T02:10:36.334Z,58.29
2023-12-23T02:12:21.401Z,58.20
2023-12-23T02:14:03.242Z,58.30
2023-12-23T02:15:38.453Z,58.36
2023-12-23T02:17:12.234Z,58.46
2023-12-23T02:18:46.703Z,58.49
2023-12-23T02:20:20.104Z,58.58
2023-12-23T02:21:53.989Z,59.13
2023-12-23T02:23:27.425Z,58.75
2023-12-23T02:25:00.094Z,58.73
2023-12-23T02:26:36.181Z,58.99
2023-12-23T02:28:13.533Z,59.04
2023-12-23T02:29:48.641Z,59.10
2023-12-23T02:31:22.552Z,59.22
2023-12-23T02:32:56.515Z,59.68
2023-12-23T02:34:30.614Z,60.19
2023-12-23T02:36:03.806Z,60.25
2023-12-23T02:37:37.431Z,60.34
2023-12-23T02:39:13.691Z,60.46
2023-12-23T02:40:47.559Z,60.63
2023-12-23T02:42:20.826Z,60.86
2023-12-23T02:43:53.118Z,60.79
2023-12-23T02:45:26.448Z,61.06
2023-12-23T02:46:59.868Z,61.28
2023-12-23T02:48:33.290Z,60.96
2023-12-23T02:50:06.550Z,61.55
2023-12-23T02:51:39.783Z,61.43
2023-12-23T02:53:14.729Z,61.52
2023-12-23T02:54:47.083Z,60.96
2023-12-23T02:56:20.433Z,61.34
2023-12-23T02:57:52.737Z,61.26
2023-12-23T02:59:26.243Z,61.10
2023-12-23T03:00:58.826Z,61.02
2023-12-23T03:02:32.125Z,61.22
2023-12-23T03:04:04.524Z,61.24
2023-12-23T03:05:38.272Z,61.47
2023-12-23T03:07:10.886Z,61.43
2023-12-23T03:08:45.479Z,61.44
2023-12-23T03:10:17.877Z,61.20
2023-12-23T03:11:51.239Z,61.26
2023-12-23T03:13:23.452Z,61.49
2023-12-23T03:14:56.764Z,61.64
2023-12-23T03:16:35.168Z,61.57
2023-12-23T03:18:08.672Z,61.58
2023-12-23T03:19:42.267Z,61.53
2023-12-23T03:21:15.654Z,61.58
2023-12-23T03:22:48.110Z,61.74
2023-12-23T03:24:23.012Z,62.29
2023-12-23T03:25:55.470Z,62.46
2023-12-23T03:27:28.950Z,62.27
2023-12-23T03:29:01.197Z,62.42
2023-12-23T03:30:34.779Z,62.63
2023-12-23T03:32:08.640Z,62.73
2023-12-23T03:33:43.284Z,62.92
2023-12-23T03:35:16.711Z,62.61
2023-12-23T03:36:49.133Z,62.94
2023-12-23T03:38:23.302Z,62.54
2023-12-23T03:39:58.162Z,62.44
2023-12-23T03:41:31.433Z,62.54
2023-12-23T03:43:03.939Z,62.53
2023-12-23T03:44:37.243Z,62.44
2023-12-23T03:46:10.805Z,62.37
2023-12-23T03:47:44.145Z,62.58
2023-12-23T03:49:16.781Z,62.65
2023-12-23T03:50:50.034Z,62.58
2023-12-23T03:52:22.227Z,62.61
2023-12-23T03:53:55.697Z,62.78
2023-12-23T03:55:33.902Z,62.62
2023-12-23T03:57:07.449Z,62.99
2023-12-23T03:58:40.762Z,63.04
2023-12-23T04:00:15.136Z,62.89
2023-12-23T04:01:47.535Z,62.99
2023-12-23T04:03:20.968Z,63.63
2023-12-23T04:04:53.225Z,63.57
2023-12-23T04:06:28.982Z,63.53
2023-12-23T04:08:01.623Z,63.59
2023-12-23T04:09:35.119Z,63.86
2023-12-23T04:11:09.104Z,64.18
2023-12-23T04:12:42.501Z,64.17
2023-12-23T04:14:14.921Z,64.40
2023-12-23T04:15:48.561Z,64.00
2023-12-23T04:17:21.740Z,64.14
2023-12-23T04:18:55.340Z,64.25
2023-12-23T04:20:29.451Z,64.28
2023-12-23T04:22:03.391Z,64.46
2023-12-23T04:23:36.675Z,64.48
2023-12-23T04:25:09.338Z,64.45
2023-12-23T04:26:44.555Z,64.58
2023-12-23T04:28:21.768Z,64.72
2023-12-23T04:29:55.126Z,64.63
2023-12-23T04:31:27.490Z,64.80
2023-12-23T04:33:01.177Z,64.86
2023-12-23T04:34:33.936Z,64.72
2023-12-23T04:36:08.463Z,64.91
2023-12-23T04:37:43.214Z,64.86
2023-12-23T04:39:17.854Z,65.33
2023-12-23T04:40:50.470Z,65.04
2023-12-23T04:42:25.166Z,64.96
2023-12-23T04:43:58.109Z,65.10
2023-12-23T04:45:31.669Z,65.30
2023-12-23T04:47:04.202Z,65.17
2023-12-23T04:48:37.471Z,65.35
2023-12-23T04:50:11.108Z,65.36
2023-12-23T04:51:45.628Z,65.49
2023-12-23T04:53:19.177Z,65.66
2023-12-23T04:54:51.399Z,65.62
2023-12-23T04:56:24.870Z,65.19
2023-12-23T04:57:58.651Z,65.83
2023-12-23T04:59:31.908Z,66.05
2023-12-23T05:01:04.397Z,66.06
2023-12-23T05:02:37.955Z,66.23
2023-12-23T05:04:10.291Z,66.27
2023-12-23T05:05:43.948Z,66.05
2023-12-23T05:07:16.228Z,66.32
2023-12-23T05:08:49.821Z,66.23
2023-12-23T05:10:22.194Z,66.11
2023-12-23T05:11:55.549Z,66.16
2023-12-23T05:13:29.213Z,66.22
2023-12-23T05:15:02.698Z,65.94
2023-12-23T05:16:35.041Z,66.46
2023-12-23T05:18:08.413Z,66.11
2023-12-23T05:19:41.822Z,66.40
2023-12-23T05:21:15.235Z,66.84
2023-12-23T05:22:47.892Z,66.58
2023-12-23T05:24:21.381Z,66.64
2023-12-23T05:25:54.632Z,66.66
2023-12-23T05:27:28.919Z,67.01
2023-12-23T05:29:02.758Z,66.93
2023-12-23T05:30:37.538Z,66.98
2023-12-23T05:32:09.790Z,66.80
2023-12-23T05:33:44.278Z,66.71
2023-12-23T05:35:16.730Z,66.78
2023-12-23T05:36:49.978Z,66.91
2023-12-23T05:38:22.239Z,66.99
2023-12-23T05:39:55.658Z,67.08
2023-12-23T05:41:28.051Z,66.84
2023-12-23T05:43:04.707Z,66.87
2023-12-23T05:44:38.418Z,66.79
2023-12-23T05:46:11.850Z,67.41
2023-12-23T05:47:44.670Z,67.33
2023-12-23T05:49:20.398Z,67.07
2023-12-23T05:50:53.880Z,67.14
2023-12-23T05:52:27.363Z,67.20
2023-12-23T05:53:59.744Z,67.17
2023-12-23T05:55:34.135Z,67.02
2023-12-23T05:57:06.442Z,67.28
2023-12-23T05:58:39.836Z,67.52
2023-12-23T06:00:15.240Z,67.79
2023-12-23T06:01:48.584Z,67.50
2023-12-23T06:03:20.850Z,67.80
2023-12-23T06:04:54.558Z,67.75
2023-12-23T06:06:27.076Z,68.06
2023-12-23T06:08:00.422Z,67.84
2023-12-23T06:09:32.723Z,67.76
2023-12-23T06:11:07.699Z,67.63
2023-12-23T06:12:41.113Z,67.60
2023-12-23T06:14:13.424Z,67.91
2023-12-23T06:15:48.110Z,67.82
2023-12-23T06:17:20.472Z,67.95
2023-12-23T06:18:54.351Z,68.09
2023-12-23T06:20:26.864Z,68.44
2023-12-23T06:22:00.223Z,68.62
2023-12-23T06:23:32.599Z,68.49
2023-12-23T06:25:07.789Z,68.46
2023-12-23T06:26:42.224Z,68.30
2023-12-23T06:28:16.827Z,68.65
2023-12-23T06:29:49.294Z,68.35
2023-12-23T06:31:25.425Z,68.44
2023-12-23T06:32:57.767Z,68.38
2023-12-23T06:34:31.108Z,68.35
2023-12-23T06:36:03.976Z,68.34
2023-12-23T06:37:37.419Z,68.15
2023-12-23T06:39:09.737Z,68.37
2023-12-23T06:40:43.123Z,68.50
2023-12-23T06:42:15.364Z,68.33
2023-12-23T06:43:52.705Z,68.20
2023-12-23T06:45:26.751Z,68.27
2023-12-23T06:47:00.406Z,68.72
2023-12-23T06:48:34.800Z,68.34
2023-12-23T06:50:08.501Z,68.21
2023-12-23T06:51:41.963Z,67.94
2023-12-23T06:53:14.228Z,68.06
2023-12-23T06:54:47.566Z,68.33
2023-12-23T06:56:22.650Z,68.26
2023-12-23T06:57:56.083Z,68.38
2023-12-23T06:59:29.330Z,68.36
2023-12-23T07:01:01.666Z,68.31
2023-12-23T07:02:36.918Z,68.54
2023-12-23T07:04:09.785Z,68.15
2023-12-23T07:05:43.361Z,68.22
2023-12-23T07:07:15.864Z,68.40
2023-12-23T07:08:49.393Z,68.14
2023-12-23T07:10:22.791Z,68.10
2023-12-23T07:11:55.062Z,67.91
2023-12-23T07:13:28.534Z,67.94
2023-12-23T07:15:01.002Z,67.85
2023-12-23T07:16:34.212Z,67.85
2023-12-23T07:18:08.536Z,67.50
2023-12-23T07:19:41.832Z,67.61
2023-12-23T07:21:14.559Z,68.02
2023-12-23T07:22:48.929Z,68.29
2023-12-23T07:24:21.362Z,67.99
2023-12-23T07:25:54.657Z,67.54
2023-12-23T07:27:28.074Z,68.04
2023-12-23T07:29:00.553Z,67.24
2023-12-23T07:30:33.959Z,66.87
2023-12-23T07:32:07.261Z,66.27
2023-12-23T07:33:42.230Z,66.31
2023-12-23T07:35:14.757Z,65.52
2023-12-23T07:36:48.032Z,65.98
2023-12-23T07:38:20.429Z,66.82
2023-12-23T07:39:54.307Z,67.03
2023-12-23T07:41:26.740Z,67.56
2023-12-23T07:43:00.267Z,67.65
2023-12-23T07:44:37.830Z,67.23
2023-12-23T07:46:11.549Z,67.18
2023-12-23T07:47:43.806Z,67.50
2023-12-23T07:49:18.702Z,67.59
2023-12-23T07:50:52.037Z,67.84
2023-12-23T07:52:24.687Z,67.94
2023-12-23T07:53:58.143Z,68.38
2023-12-23T07:55:30.605Z,69.57
2023-12-23T07:57:03.918Z,69.47
2023-12-23T07:58:38.368Z,69.72
2023-12-23T08:00:13.082Z,69.92
2023-12-23T08:01:49.639Z,70.88
2023-12-23T08:03:25.512Z,70.76
2023-12-23T08:04:59.464Z,71.69
2023-12-23T08:06:32.952Z,70.92
2023-12-23T08:08:06.647Z,72.00
2023-12-23T08:09:39.963Z,73.01
2023-12-23T08:11:12.905Z,71.46
2023-12-23T08:12:51.451Z,71.51
2023-12-23T08:14:23.847Z,72.56
2023-12-23T08:15:57.259Z,72.98
2023-12-23T08:17:30.316Z,72.60
2023-12-23T08:19:03.661Z,72.77
2023-12-23T08:20:37.889Z,72.75
2023-12-23T08:22:11.614Z,72.95
2023-12-23T08:23:44.078Z,73.10
2023-12-23T08:25:17.562Z,72.61
2023-12-23T08:26:49.834Z,73.16
2023-12-23T08:28:23.201Z,74.17
2023-12-23T08:29:55.844Z,73.79
2023-12-23T08:31:29.197Z,73.27
2023-12-23T08:33:01.494Z,73.72
2023-12-23T08:34:34.798Z,73.63
2023-12-23T08:36:09.045Z,74.25
2023-12-23T08:37:42.510Z,73.67
2023-12-23T08:39:14.850Z,73.80
2023-12-23T08:40:48.272Z,73.90
2023-12-23T08:42:20.724Z,74.26
2023-12-23T08:43:54.032Z,74.68
2023-12-23T08:45:27.525Z,75.30
2023-12-23T08:46:59.724Z,74.65
2023-12-23T08:48:33.160Z,74.79
2023-12-23T08:50:06.490Z,74.93
2023-12-23T08:51:41.162Z,75.04
2023-12-23T08:53:13.576Z,74.71
2023-12-23T08:54:46.959Z,75.09
2023-12-23T08:56:19.452Z,76.16
2023-12-23T08:57:52.956Z,75.52
2023-12-23T08:59:25.603Z,75.38
2023-12-23T09:00:59.944Z,75.40
2023-12-23T09:02:32.444Z,75.04
2023-12-23T09:04:06.013Z,75.95
2023-12-23T09:05:39.382Z,75.31
2023-12-23T09:07:13.768Z,76.11
2023-12-23T09:08:47.332Z,75.59
2023-12-23T09:10:19.799Z,75.73
2023-12-23T09:11:53.270Z,75.34
2023-12-23T09:13:25.676Z,75.59
2023-12-23T09:14:58.997Z,76.04
2023-12-23T09:16:31.312Z,75.45
2023-12-23T09:18:05.031Z,75.63
2023-12-23T09:19:37.387Z,75.51
2023-12-23T09:21:10.865Z,75.06
2023-12-23T09:22:45.460Z,74.86
2023-12-23T09:24:19.772Z,74.80
2023-12-23T09:25:54.071Z,74.82
2023-12-23T09:27:27.984Z,74.79
2023-12-23T09:29:01.382Z,74.80
2023-12-23T09:30:33.700Z,74.51
2023-12-23T09:32:07.698Z,74.32
2023-12-23T09:33:40.929Z,74.39
2023-12-23T09:35:14.436Z,74.17
2023-12-23T09:36:47.879Z,74.06
2023-12-23T09:38:22.693Z,74.08
2023-12-23T09:39:55.800Z,74.16
2023-12-23T09:41:29.194Z,74.08
2023-12-23T09:43:01.651Z,74.10
2023-12-23T09:44:35.637Z,74.04
2023-12-23T09:46:09.375Z,73.53
2023-12-23T09:47:44.055Z,72.37
2023-12-23T09:49:16.552Z,72.99
2023-12-23T09:50:49.968Z,73.34
2023-12-23T09:52:22.754Z,73.48
2023-12-23T09:53:59.803Z,73.68
2023-12-23T09:55:32.816Z,73.25
2023-12-23T09:57:06.303Z,73.38
2023-12-23T09:58:38.578Z,73.73
2023-12-23T10:00:13.812Z,73.50
2023-12-23T10:01:46.727Z,73.32
2023-12-23T10:03:23.169Z,73.45
2023-12-23T10:04:55.670Z,73.04
2023-12-23T10:06:29.239Z,73.37
2023-12-23T10:08:01.661Z,73.30
2023-12-23T10:09:36.426Z,73.08
2023-12-23T10:11:08.726Z,73.02
2023-12-23T10:12:42.463Z,72.98
2023-12-23T10:14:14.872Z,73.07
2023-12-23T10:15:48.349Z,72.67
2023-12-23T10:17:20.683Z,72.04
2023-12-23T10:18:54.538Z,72.40
2023-12-23T10:20:27.743Z,72.44
2023-12-23T10:22:04.991Z,72.62
2023-12-23T10:23:38.938Z,72.42
2023-12-23T10:25:12.957Z,71.83
2023-12-23T10:26:48.180Z,71.29
2023-12-23T10:28:22.544Z,71.21
2023-12-23T10:29:58.447Z,70.52
2023-12-23T10:31:32.658Z,70.23
2023-12-23T10:33:08.687Z,70.96
2023-12-23T10:34:44.732Z,70.21
2023-12-23T10:36:21.606Z,70.37
2023-12-23T10:37:58.068Z,69.76
2023-12-23T10:39:36.416Z,70.32
2023-12-23T10:41:19.291Z,70.30
2023-12-23T10:42:53.684Z,71.01
2023-12-23T10:44:29.057Z,70.47
2023-12-23T10:46:02.949Z,70.23
2023-12-23T10:47:37.355Z,71.33
2023-12-23T10:49:11.887Z,72.27
2023-12-23T10:50:48.334Z,72.17
2023-12-23T10:52:21.417Z,72.60
2023-12-23T10:53:56.302Z,72.88
2023-12-23T10:55:30.777Z,72.36
2023-12-23T10:57:07.371Z,72.29
2023-12-23T10:58:40.835Z,72.56
2023-12-23T11:00:15.095Z,72.67
2023-12-23T11:01:49.072Z,72.72
2023-12-23T11:03:22.857Z,72.41
2023-12-23T11:04:57.044Z,71.57
2023-12-23T11:06:32.949Z,71.24
2023-12-23T11:08:14.161Z,70.44
2023-12-23T11:09:54.019Z,70.39
2023-12-23T11:11:27.588Z,69.94
2023-12-23T11:13:02.669Z,70.66
2023-12-23T11:14:35.024Z,70.08
2023-12-23T11:16:11.915Z,67.08
2023-12-23T11:17:44.777Z,69.48
2023-12-23T11:19:19.149Z,69.48
2023-12-23T11:20:51.703Z,69.66
2023-12-23T11:22:26.820Z,69.30
2023-12-23T11:24:01.081Z,69.43
2023-12-23T11:25:39.583Z,69.04
2023-12-23T11:27:30.284Z,66.75
2023-12-23T11:29:07.832Z,67.23
2023-12-23T11:30:47.928Z,65.45
2023-12-23T11:32:21.723Z,66.48
2023-12-23T11:33:54.450Z,67.31
2023-12-23T11:35:28.007Z,67.76
2023-12-23T11:37:00.435Z,66.55
2023-12-23T11:38:48.365Z,65.19
2023-12-23T11:40:21.691Z,66.98
2023-12-23T11:41:55.040Z,66.68
2023-12-23T11:43:27.298Z,67.50
2023-12-23T11:45:02.134Z,67.63
2023-12-23T11:46:37.400Z,67.42
2023-12-23T11:48:11.251Z,67.02
2023-12-23T11:49:46.173Z,67.15
2023-12-23T11:51:18.704Z,67.76
2023-12-23T11:52:52.863Z,66.66
2023-12-23T11:54:25.547Z,66.16
2023-12-23T11:55:59.080Z,64.34
2023-12-23T11:57:31.990Z,66.43
2023-12-23T11:59:06.765Z,66.42
2023-12-23T12:00:42.072Z,66.22
2023-12-23T12:02:15.503Z,66.53
2023-12-23T12:03:48.717Z,66.56
2023-12-23T12:05:22.337Z,65.92
2023-12-23T12:06:56.406Z,61.36
2023-12-23T12:08:31.784Z,64.78
2023-12-23T12:10:05.358Z,63.27
2023-12-23T12:11:38.993Z,63.31
2023-12-23T12:13:12.438Z,64.08
2023-12-23T12:14:44.904Z,60.72
2023-12-23T12:16:19.868Z,62.39
2023-12-23T12:17:53.120Z,63.54
2023-12-23T12:19:26.741Z,62.92
2023-12-23T12:20:59.332Z,63.18
2023-12-23T12:22:33.480Z,61.83
2023-12-23T12:24:06.742Z,63.17
2023-12-23T12:25:40.044Z,62.48
2023-12-23T12:27:12.279Z,62.48
2023-12-23T12:28:47.877Z,62.83
2023-12-23T12:30:20.501Z,62.80
2023-12-23T12:31:56.065Z,59.84
2023-12-23T12:33:28.427Z,60.60
2023-12-23T12:35:05.119Z,61.22
2023-12-23T12:36:37.567Z,60.48
2023-12-23T12:38:17.238Z,59.57
2023-12-23T12:39:56.584Z,59.94
2023-12-23T12:41:30.346Z,59.83
2023-12-23T12:43:06.900Z,59.62
2023-12-23T12:44:41.931Z,58.54
2023-12-23T12:46:16.304Z,58.76
2023-12-23T12:47:52.423Z,60.19
2023-12-23T12:49:25.406Z,59.74
2023-12-23T12:50:59.230Z,58.29
2023-12-23T12:52:31.958Z,60.02
2023-12-23T12:54:06.209Z,60.18
2023-12-23T12:55:38.585Z,60.40
2023-12-23T12:57:11.860Z,59.48
2023-12-23T12:58:46.283Z,60.12
2023-12-23T13:00:22.319Z,59.64
2023-12-23T13:01:55.381Z,60.08
2023-12-23T13:03:30.149Z,58.52
2023-12-23T13:05:02.348Z,58.64
2023-12-23T13:06:35.700Z,59.19
2023-12-23T13:08:08.434Z,59.91
2023-12-23T13:09:42.024Z,59.84
2023-12-23T13:11:15.014Z,59.46
2023-12-23T13:12:48.562Z,59.22
2023-12-23T13:14:22.207Z,59.09
2023-12-23T13:15:54.416Z,59.49
2023-12-23T13:17:27.931Z,58.32
2023-12-23T13:19:01.916Z,57.22
2023-12-23T13:20:35.420Z,58.77
2023-12-23T13:22:08.686Z,58.48
2023-12-23T13:23:41.009Z,58.12
2023-12-23T13:25:14.562Z,58.10
2023-12-23T13:26:46.949Z,58.72
2023-12-23T13:28:20.449Z,58.04
2023-12-23T13:29:52.792Z,58.05
2023-12-23T13:31:26.033Z,58.01
2023-12-23T13:32:58.485Z,57.89
2023-12-23T13:34:33.537Z,57.77
2023-12-23T13:36:06.319Z,57.03
2023-12-23T13:37:41.456Z,54.70
2023-12-23T13:39:14.493Z,54.68
2023-12-23T13:40:49.797Z,56.94
2023-12-23T13:42:22.607Z,56.68
2023-12-23T13:43:56.380Z,57.09
2023-12-23T13:45:29.415Z,56.77
2023-12-23T13:47:03.736Z,56.89
2023-12-23T13:48:37.128Z,56.40
2023-12-23T13:50:12.253Z,56.36
2023-12-23T13:51:45.766Z,56.66
2023-12-23T13:53:18.114Z,56.37
2023-12-23T13:54:51.465Z,56.69
2023-12-23T13:56:23.744Z,53.91
2023-12-23T13:57:57.251Z,56.06
2023-12-23T13:59:29.529Z,54.19
2023-12-23T14:01:03.300Z,55.63
2023-12-23T14:02:35.624Z,55.70
2023-12-23T14:04:08.911Z,55.09
2023-12-23T14:05:44.227Z,53.94
2023-12-23T14:07:17.556Z,52.98
2023-12-23T14:08:49.818Z,54.90
2023-12-23T14:10:23.165Z,53.82
2023-12-23T14:11:55.462Z,52.70
2023-12-23T14:13:28.720Z,53.53
2023-12-23T14:15:01.158Z,52.89
2023-12-23T14:16:35.792Z,53.11
2023-12-23T14:18:08.815Z,52.03
2023-12-23T14:19:42.087Z,53.80
2023-12-23T14:21:15.813Z,53.17
2023-12-23T14:22:49.412Z,52.03
2023-12-23T14:24:21.979Z,51.28
2023-12-23T14:25:55.287Z,51.37
2023-12-23T14:27:28.640Z,51.49
2023-12-23T14:29:01.100Z,52.96
2023-12-23T14:30:35.617Z,52.08
2023-12-23T14:32:07.889Z,52.71
2023-12-23T14:33:43.458Z,53.26
2023-12-23T14:35:16.273Z,52.91
2023-12-23T14:36:50.867Z,52.02
2023-12-23T14:38:23.195Z,50.87
2023-12-23T14:39:56.520Z,53.06
2023-12-23T14:41:29.945Z,53.51
2023-12-23T14:43:03.446Z,53.47
2023-12-23T14:44:36.277Z,53.46
2023-12-23T14:46:10.221Z,53.08
2023-12-23T14:47:43.502Z,53.87
2023-12-23T14:49:17.407Z,54.22
2023-12-23T14:50:49.712Z,53.77
2023-12-23T14:52:24.459Z,53.85
2023-12-23T14:53:57.026Z,53.27
2023-12-23T14:55:30.358Z,53.64
2023-12-23T14:57:02.791Z,53.91
2023-12-23T14:58:36.241Z,53.63
2023-12-23T15:00:11.056Z,54.04
2023-12-23T15:01:44.699Z,53.92
2023-12-23T15:03:18.275Z,53.52
2023-12-23T15:04:50.738Z,53.44
2023-12-23T15:06:24.258Z,53.63
2023-12-23T15:07:58.243Z,53.57
2023-12-23T15:09:31.797Z,52.86
2023-12-23T15:11:05.437Z,53.73
2023-12-23T15:12:39.415Z,53.26
2023-12-23T15:14:11.728Z,53.63
2023-12-23T15:15:45.192Z,53.77
2023-12-23T15:17:18.088Z,53.53
2023-12-23T15:18:53.675Z,53.19
2023-12-23T15:20:26.869Z,53.74
2023-12-23T15:22:00.538Z,53.52
2023-12-23T15:23:35.349Z,53.47
2023-12-23T15:25:09.333Z,53.83
2023-12-23T15:26:41.951Z,53.78
2023-12-23T15:28:15.238Z,53.86
2023-12-23T15:29:47.556Z,53.75
2023-12-23T15:31:21.040Z,53.83
2023-12-23T15:32:53.765Z,53.71
2023-12-23T15:34:27.423Z,53.98
2023-12-23T15:35:59.713Z,53.86
2023-12-23T15:37:33.242Z,53.86
2023-12-23T15:39:06.932Z,53.10
2023-12-23T15:40:40.298Z,53.63
2023-12-23T15:42:13.559Z,53.67
2023-12-23T15:43:46.204Z,54.18
2023-12-23T15:45:19.659Z,54.07
2023-12-23T15:46:51.969Z,54.26
2023-12-23T15:48:25.746Z,54.32
2023-12-23T15:49:58.172Z,54.36
2023-12-23T15:51:31.544Z,54.50
2023-12-23T15:53:04.761Z,54.42
2023-12-23T15:54:39.716Z,54.27
2023-12-23T15:56:12.473Z,54.74
2023-12-23T15:57:45.779Z,54.60
2023-12-23T15:59:19.005Z,54.72
2023-12-23T16:00:51.397Z,54.82
2023-12-23T16:02:24.739Z,54.71
2023-12-23T16:03:57.104Z,54.92
2023-12-23T16:05:30.398Z,55.00
2023-12-23T16:07:03.053Z,54.94
2023-12-23T16:08:36.518Z,55.15
2023-12-23T16:10:10.737Z,54.79
2023-12-23T16:11:44.109Z,55.16
2023-12-23T16:13:16.502Z,55.27
2023-12-23T16:14:49.840Z,55.34
2023-12-23T16:16:22.260Z,55.04
2023-12-23T16:17:55.558Z,55.36
2023-12-23T16:19:27.819Z,55.05
2023-12-23T16:21:01.298Z,55.19
2023-12-23T16:22:35.408Z,55.50
2023-12-23T16:24:09.075Z,55.53
2023-12-23T16:25:42.786Z,55.65
2023-12-23T16:27:16.197Z,55.50
2023-12-23T16:28:48.559Z,55.60
2023-12-23T16:30:21.852Z,55.59
2023-12-23T16:31:54.195Z,55.66
2023-12-23T16:33:27.640Z,55.57
2023-12-23T16:34:59.998Z,55.58
2023-12-23T16:36:33.312Z,55.63
2023-12-23T16:38:05.690Z,56.06
2023-12-23T16:39:39.147Z,55.82
2023-12-23T16:41:13.295Z,55.69
2023-12-23T16:42:46.665Z,55.58
2023-12-23T16:44:19.180Z,55.84
2023-12-23T16:45:52.578Z,55.94
2023-12-23T16:47:24.872Z,55.81
2023-12-23T16:48:58.382Z,55.91
2023-12-23T16:50:30.741Z,55.88
2023-12-23T16:52:04.270Z,55.77
2023-12-23T16:53:38.290Z,55.88
2023-12-23T16:55:12.019Z,55.65
2023-12-23T16:56:46.835Z,55.80
2023-12-23T16:58:20.479Z,55.98
2023-12-23T16:59:53.919Z,55.91
2023-12-23T17:01:26.286Z,56.00
2023-12-23T17:02:59.561Z,56.20
2023-12-23T17:04:31.926Z,56.04
2023-12-23T17:06:05.287Z,56.15
2023-12-23T17:07:37.556Z,56.02
2023-12-23T17:09:12.055Z,55.99
2023-12-23T17:10:44.421Z,56.40
2023-12-23T17:12:19.194Z,55.54
2023-12-23T17:13:52.437Z,55.98
2023-12-23T17:15:25.237Z,56.01
2023-12-23T17:16:59.721Z,56.07
2023-12-23T17:18:33.419Z,56.24
2023-12-23T17:20:08.082Z,56.27
2023-12-23T17:21:41.399Z,56.33
2023-12-23T17:23:13.817Z,56.48
2023-12-23T17:24:47.223Z,56.51
2023-12-23T17:26:19.838Z,56.57
2023-12-23T17:27:54.574Z,56.46
2023-12-23T17:29:27.075Z,56.77
2023-12-23T17:31:00.563Z,56.77
2023-12-23T17:32:33.880Z,56.78
2023-12-23T17:34:07.376Z,56.53
2023-12-23T17:35:40.724Z,56.74
2023-12-23T17:37:14.202Z,56.71
2023-12-23T17:38:47.460Z,56.50
2023-12-23T17:40:20.758Z,56.99
2023-12-23T17:41:53.517Z,56.97
2023-12-23T17:43:28.175Z,57.22
2023-12-23T17:45:00.462Z,57.23
2023-12-23T17:46:33.758Z,57.48
2023-12-23T17:48:07.768Z,57.54
2023-12-23T17:49:41.011Z,57.74
2023-12-23T17:51:13.424Z,57.90
2023-12-23T17:52:46.768Z,57.93
2023-12-23T17:54:20.179Z,58.36
2023-12-23T17:55:52.823Z,58.46
2023-12-23T17:57:27.556Z,58.37
2023-12-23T17:59:01.334Z,58.55
2023-12-23T18:00:34.781Z,58.36
2023-12-23T18:02:07.078Z,58.68
2023-12-23T18:03:40.332Z,58.74
2023-12-23T18:05:12.860Z,59.18
2023-12-23T18:06:46.275Z,59.14
2023-12-23T18:08:19.578Z,59.17
2023-12-23T18:09:52.049Z,59.18
2023-12-23T18:11:25.501Z,59.27
2023-12-23T18:13:00.965Z,59.21
2023-12-23T18:14:36.049Z,59.58
2023-12-23T18:16:08.907Z,59.68
2023-12-23T18:17:43.040Z,59.95
2023-12-23T18:19:15.599Z,60.08
2023-12-23T18:20:48.839Z,60.13
2023-12-23T18:22:21.792Z,60.51
2023-12-23T18:23:55.055Z,60.44
2023-12-23T18:25:27.730Z,60.44
2023-12-23T18:27:01.491Z,60.62
2023-12-23T18:28:33.917Z,60.72
2023-12-23T18:30:09.957Z,60.54
2023-12-23T18:31:43.358Z,60.52
2023-12-23T18:33:17.445Z,60.56
2023-12-23T18:34:50.214Z,60.35
2023-12-23T18:36:23.647Z,60.58
2023-12-23T18:37:56.122Z,60.61
2023-12-23T18:39:29.409Z,60.65
2023-12-23T18:41:01.644Z,60.61
2023-12-23T18:42:34.860Z,60.87
2023-12-23T18:44:07.520Z,60.88
2023-12-23T18:45:42.157Z,61.22
2023-12-23T18:47:14.428Z,61.32
2023-12-23T18:48:48.568Z,61.26
2023-12-23T18:50:21.312Z,61.28
2023-12-23T18:51:54.769Z,61.39
2023-12-23T18:53:27.094Z,61.39
2023-12-23T18:55:00.457Z,61.50
2023-12-23T18:56:33.141Z,61.86
2023-12-23T18:58:08.519Z,62.34
2023-12-23T18:59:41.978Z,62.32
2023-12-23T19:01:15.783Z,62.16
2023-12-23T19:02:49.932Z,62.38
2023-12-23T19:04:22.440Z,62.00
2023-12-23T19:05:58.553Z,62.09
2023-12-23T19:07:30.876Z,62.12
2023-12-23T19:09:04.361Z,62.15
2023-12-23T19:10:36.584Z,62.04
2023-12-23T19:12:10.644Z,61.92
2023-12-23T19:13:42.811Z,61.97
2023-12-23T19:15:16.356Z,62.22
2023-12-23T19:16:50.618Z,62.27
2023-12-23T19:18:24.570Z,62.22
2023-12-23T19:19:59.123Z,62.36
2023-12-23T19:21:34.269Z,62.36
2023-12-23T19:23:08.859Z,62.16
2023-12-23T19:24:42.402Z,62.26
2023-12-23T19:26:25.585Z,62.49
2023-12-23T19:27:58.072Z,62.61
2023-12-23T19:29:31.498Z,62.50
2023-12-23T19:31:05.096Z,62.51
2023-12-23T19:32:41.738Z,62.64
2023-12-23T19:34:14.281Z,63.05
2023-12-23T19:35:48.637Z,63.04
2023-12-23T19:37:21.048Z,63.44
2023-12-23T19:38:56.014Z,63.68
2023-12-23T19:40:28.416Z,63.75
2023-12-23T19:42:02.867Z,63.92
2023-12-23T19:43:35.214Z,64.02
2023-12-23T19:45:09.732Z,63.65
2023-12-23T19:46:42.228Z,64.21
2023-12-23T19:48:25.850Z,64.23
2023-12-23T19:50:01.140Z,64.33
2023-12-23T19:51:34.833Z,64.22
2023-12-23T19:53:07.401Z,64.63
2023-12-23T19:54:40.694Z,64.63
2023-12-23T19:56:13.926Z,64.67
2023-12-23T19:57:47.246Z,64.84
2023-12-23T19:59:19.786Z,64.54
2023-12-23T20:00:53.089Z,64.47
2023-12-23T20:02:26.009Z,64.51
2023-12-23T20:04:00.820Z,64.65
2023-12-23T20:05:35.118Z,64.99
2023-12-23T20:07:11.069Z,64.48